Time;durP1;ratioP1;P1;durP2;ratioP2;P2;SDS_P1;SDS_P2;PMS_P1;PMS_P2;Temp;Humidity;BMP_temperature;BMP_pressure;BME280_temperature;BME280_humidity;BME280_pressure;Samples;Min_cycle;Max_cycle;Signal;HPM_P1;HPM_P2
2023/03/16 00:00:55;;;;;;;4.87;3.33;;;;;;;3.16;72.56;101731.63;5027437;28;20032;-79
2023/03/16 00:03:21;;;;;;;5.03;3.20;;;;;;;3.15;72.84;101724.75;5028651;28;20025;-78
2023/03/16 00:05:48;;;;;;;6.00;3.50;;;;;;;3.22;72.59;101724.88;5028019;28;20029;-79
2023/03/16 00:08:14;;;;;;;5.90;3.53;;;;;;;3.22;73.10;101719.72;5028359;28;20025;-79
2023/03/16 00:10:45;;;;;;;5.43;3.80;;;;;;;3.23;72.71;101714.59;5029255;28;20021;-79
2023/03/16 00:13:17;;;;;;;4.90;3.33;;;;;;;3.24;73.24;101707.78;5026937;28;20021;-79
2023/03/16 00:15:49;;;;;;;;;;;;;;;3.27;71.66;101698.41;5028882;28;20060;-79
2023/03/16 00:18:15;;;;;;;5.50;3.13;;;;;;;3.29;72.78;101700.97;5026727;28;19912;-79
2023/03/16 00:20:40;;;;;;;5.83;3.60;;;;;;;3.30;72.89;101713.00;5028881;28;20047;-79
2023/03/16 00:23:06;;;;;;;5.93;3.60;;;;;;;3.30;73.06;101708.75;5028170;28;20060;-79
2023/03/16 00:25:32;;;;;;;5.63;3.47;;;;;;;3.30;73.14;101707.88;5009350;28;20751;-78
2023/03/16 00:27:57;;;;;;;6.23;3.43;;;;;;;3.32;73.12;101706.19;5026889;28;20025;-79
2023/03/16 00:30:23;;;;;;;6.57;3.40;;;;;;;3.33;73.42;101695.91;5026137;28;20037;-79
2023/03/16 00:32:48;;;;;;;6.57;3.70;;;;;;;3.34;73.29;101694.22;5031750;28;20017;-79
2023/03/16 00:35:13;;;;;;;6.00;3.37;;;;;;;3.34;73.08;101699.38;5027760;28;20076;-79
2023/03/16 00:37:39;;;;;;;5.20;3.17;;;;;;;3.36;72.92;101687.41;5028889;28;20124;-79
2023/03/16 00:40:06;;;;;;;5.40;3.27;;;;;;;3.37;73.58;101693.41;5012499;28;20483;-79
2023/03/16 00:42:33;;;;;;;5.67;3.70;;;;;;;3.37;73.47;101685.69;5015443;28;20029;-79
2023/03/16 00:44:59;;;;;;;5.33;3.60;;;;;;;3.38;73.51;101690.88;5028236;28;20469;-79
2023/03/16 00:47:27;;;;;;;4.73;3.33;;;;;;;3.37;73.70;101678.84;5030888;28;20029;-79
2023/03/16 00:49:52;;;;;;;5.83;3.60;;;;;;;3.38;73.72;101675.44;5029046;28;22803;-78
2023/03/16 00:52:17;;;;;;;4.97;3.27;;;;;;;3.39;73.60;101666.91;5029878;28;20156;-79
2023/03/16 00:54:45;;;;;;;5.80;3.50;;;;;;;3.41;73.70;101675.50;5029149;28;20488;-79
2023/03/16 00:57:17;;;;;;;5.37;3.60;;;;;;;3.42;73.94;101668.63;5031049;28;20025;-79
2023/03/16 00:59:43;;;;;;;6.93;3.60;;;;;;;3.41;74.28;101666.91;5029221;28;20037;-79
2023/03/16 01:02:10;;;;;;;5.50;3.70;;;;;;;3.42;74.31;101661.78;5029201;28;20204;-79
2023/03/16 01:04:36;;;;;;;5.37;3.63;;;;;;;3.43;74.14;101657.50;5027437;28;20033;-79
2023/03/16 01:07:06;;;;;;;8.53;3.87;;;;;;;3.43;74.12;101660.94;5029238;28;20040;-79
2023/03/16 01:09:35;;;;;;;4.93;3.30;;;;;;;3.45;73.99;101651.53;5030390;28;20138;-78
2023/03/16 01:12:05;;;;;;;5.97;3.50;;;;;;;3.46;74.07;101653.28;5030187;28;20113;-79
2023/03/16 01:14:33;;;;;;;4.77;3.50;;;;;;;3.45;74.77;101636.09;5028965;28;20041;-78
2023/03/16 01:16:59;;;;;;;6.53;3.67;;;;;;;3.45;74.56;101641.25;5029618;28;20037;-79
2023/03/16 01:19:24;;;;;;;4.93;3.63;;;;;;;3.46;74.47;101637.00;5029981;28;20040;-79
2023/03/16 01:21:49;;;;;;;4.93;3.10;;;;;;;3.47;74.83;101638.72;5012719;28;20050;-78
2023/03/16 01:24:15;;;;;;;5.77;3.20;;;;;;;3.47;74.42;101626.72;5028367;28;20044;-78
2023/03/16 01:26:40;;;;;;;6.23;3.70;;;;;;;3.46;74.44;101626.69;5026908;28;20045;-79
2023/03/16 01:29:05;;;;;;;5.00;3.43;;;;;;;3.45;74.42;101630.97;5032373;28;20151;-79
2023/03/16 01:31:31;;;;;;;6.93;3.50;;;;;;;3.45;74.48;101622.41;5026015;28;20715;-79
2023/03/16 01:33:56;;;;;;;5.20;3.53;;;;;;;3.44;74.39;101629.22;5026547;28;20030;-79
2023/03/16 01:36:22;;;;;;;7.77;3.67;;;;;;;3.43;73.83;101617.22;5032563;28;20221;-79
2023/03/16 01:38:47;;;;;;;7.73;3.80;;;;;;;3.43;74.27;101619.78;5034129;28;20021;-79
2023/03/16 01:41:13;;;;;;;5.77;3.40;;;;;;;3.42;74.50;101610.31;5033379;28;20415;-79
2023/03/16 01:43:40;;;;;;;6.00;3.53;;;;;;;3.43;74.73;101608.63;5032374;28;20026;-79
2023/03/16 01:46:05;;;;;;;5.27;3.30;;;;;;;3.43;74.19;101612.06;5018091;28;20038;-79
2023/03/16 01:48:40;;;;;;;4.70;3.30;;;;;;;3.44;74.29;101602.66;5032050;28;20392;-78
2023/03/16 01:51:10;;;;;;;5.33;3.60;;;;;;;3.45;74.81;101610.38;5035749;28;20480;-78
2023/03/16 01:53:38;;;;;;;6.73;3.60;;;;;;;3.47;74.58;101613.84;5031636;28;20064;-79
2023/03/16 01:56:08;;;;;;;6.00;3.43;;;;;;;3.45;74.79;101607.81;5033493;28;20040;-79
2023/03/16 01:58:35;;;;;;;5.33;3.03;;;;;;;3.47;74.22;101595.84;5030836;28;20042;-79
2023/03/16 02:01:02;;;;;;;5.97;3.60;;;;;;;3.48;74.07;101594.16;5032095;28;20025;-79
2023/03/16 02:03:28;;;;;;;7.20;3.80;;;;;;;3.47;74.16;101598.41;5032161;28;20025;-79
2023/03/16 02:05:59;;;;;;;5.53;3.47;;;;;;;3.45;74.32;101597.53;5032161;28;20503;-79
2023/03/16 02:08:26;;;;;;;5.78;3.80;;;;;;;3.48;74.32;101594.16;5032389;28;20476;-78
2023/03/16 02:10:53;;;;;;;5.13;3.27;;;;;;;3.47;74.42;101592.41;5033398;28;20048;-79
2023/03/16 02:13:21;;;;;;;6.13;3.20;;;;;;;3.47;74.10;101577.84;5032596;28;20014;-78
2023/03/16 02:15:46;;;;;;;6.43;3.47;;;;;;;3.47;73.95;101572.69;5031722;28;20116;-78
2023/03/16 02:18:13;;;;;;;5.50;3.20;;;;;;;3.49;74.11;101580.44;5032852;28;20108;-79
2023/03/16 02:21:05;;;;;;;4.80;3.20;;;;;;;3.49;73.97;101576.16;5034078;28;20038;-79
2023/03/16 02:23:31;;;;;;;5.43;3.28;;;;;;;3.48;74.25;101569.28;5029955;28;20118;-78
2023/03/16 02:26:18;;;;;;;5.73;3.10;;;;;;;3.48;74.54;101563.28;5032484;28;20104;-79
2023/03/16 02:28:58;;;;;;;5.03;3.07;;;;;;;3.49;73.73;101568.44;5031098;28;20388;-79
2023/03/16 02:31:24;;;;;;;5.00;3.20;;;;;;;3.48;74.41;101553.84;5029471;28;20476;-78
2023/03/16 02:33:51;;;;;;;5.93;3.10;;;;;;;3.48;73.78;101558.13;5031293;28;20026;-79
2023/03/16 02:36:18;;;;;;;7.17;3.63;;;;;;;3.47;74.66;101562.41;5032375;28;20040;-79
2023/03/16 02:38:45;;;;;;;5.13;3.00;;;;;;;3.49;74.02;101567.59;5030118;28;20460;-78
2023/03/16 02:41:17;;;;;;;6.23;3.20;;;;;;;3.47;74.47;101567.53;5031415;28;20461;-79
2023/03/16 02:43:56;;;;;;;8.10;3.43;;;;;;;3.48;74.52;101571.00;5030071;28;20053;-79
2023/03/16 02:46:25;;;;;;;5.67;3.23;;;;;;;3.47;75.29;101567.53;5015582;28;20029;-78
2023/03/16 02:49:01;;;;;;;4.87;3.10;;;;;;;3.47;75.41;101570.13;5032173;28;20476;-79
2023/03/16 02:51:27;;;;;;;5.13;3.10;;;;;;;3.48;75.93;101574.44;5032038;28;20033;-79
2023/03/16 02:53:52;;;;;;;5.93;3.60;;;;;;;3.48;75.78;101573.56;5029704;28;20032;-78
2023/03/16 02:56:18;;;;;;;5.10;3.10;;;;;;;3.48;76.06;101578.72;5018520;28;20029;-79
2023/03/16 02:58:43;;;;;;;4.57;3.10;;;;;;;3.46;75.90;101573.53;5032332;28;20046;-79
2023/03/16 03:01:08;;;;;;;5.60;3.10;;;;;;;3.45;76.56;101573.53;5029658;28;20103;-79
2023/03/16 03:03:34;;;;;;;5.03;2.67;;;;;;;3.44;76.81;101567.50;5029064;28;20033;-79
2023/03/16 03:06:00;;;;;;;4.83;3.00;;;;;;;3.43;76.81;101563.19;5017160;28;20108;-78
2023/03/16 03:08:26;;;;;;;3.67;2.63;;;;;;;3.43;77.39;101563.19;5031813;28;20151;-79
2023/03/16 03:10:51;;;;;;;4.30;3.00;;;;;;;3.44;77.37;101557.22;5028785;28;20104;-79
2023/03/16 03:13:16;;;;;;;5.30;2.90;;;;;;;3.45;77.41;101555.50;5033602;28;20221;-79
2023/03/16 03:15:42;;;;;;;4.90;2.70;;;;;;;3.45;76.53;101561.50;5027369;28;20048;-79
2023/03/16 03:18:07;;;;;;;4.90;3.00;;;;;;;3.46;77.60;101555.53;5026588;28;20043;-79
2023/03/16 03:20:33;;;;;;;5.30;3.10;;;;;;;3.47;77.18;101562.41;5030683;28;20041;-79
2023/03/16 03:22:58;;;;;;;5.33;3.13;;;;;;;3.46;77.53;101552.94;5031519;28;20036;-78
2023/03/16 03:25:23;;;;;;;4.83;2.77;;;;;;;3.47;77.33;101552.13;5028221;28;20028;-78
2023/03/16 03:27:53;;;;;;;4.87;2.70;;;;;;;3.47;77.26;101551.25;5013321;28;20035;-78
2023/03/16 03:30:20;;;;;;;4.73;2.67;;;;;;;3.47;77.26;101546.13;5032593;28;20095;-78
2023/03/16 03:32:46;;;;;;;4.43;3.10;;;;;;;3.47;77.21;101541.81;5030533;28;20075;-78
2023/03/16 03:35:14;;;;;;;4.40;2.97;;;;;;;3.49;77.73;101535.00;5030140;28;20049;-78
2023/03/16 03:37:41;;;;;;;5.60;3.00;;;;;;;3.49;77.12;101540.13;5031658;28;20032;-79
2023/03/16 03:40:09;;;;;;;5.70;3.20;;;;;;;3.51;77.24;101531.59;5031345;28;20476;-78
2023/03/16 03:42:34;;;;;;;5.27;2.73;;;;;;;3.51;77.23;101532.44;5031440;28;20480;-78
2023/03/16 03:44:59;;;;;;;5.20;3.03;;;;;;;3.50;76.90;101533.31;5031239;28;20147;-78
2023/03/16 03:47:24;;;;;;;5.40;2.97;;;;;;;3.49;77.08;101524.72;5029250;28;20104;-78
2023/03/16 03:49:50;;;;;;;4.93;3.10;;;;;;;3.49;76.80;101524.72;5032733;28;20029;-78
2023/03/16 03:52:15;;;;;;;3.90;2.80;;;;;;;3.49;76.55;101529.84;5026054;28;20017;-78
2023/03/16 03:54:40;;;;;;;5.23;2.87;;;;;;;3.48;76.71;101522.97;5030209;28;20036;-78
2023/03/16 03:57:05;;;;;;;4.87;2.90;;;;;;;3.47;77.15;101521.25;5027701;28;20079;-79
2023/03/16 03:59:31;;;;;;;5.23;2.73;;;;;;;3.48;76.74;101528.13;5027739;28;20365;-78
2023/03/16 04:01:56;;;;;;;4.37;2.80;;;;;;;3.47;76.46;101526.38;5027971;28;20075;-78
2023/03/16 04:04:22;;;;;;;4.17;2.70;;;;;;;3.47;76.72;101522.97;5028237;28;20071;-79
2023/03/16 04:06:47;;;;;;;3.87;2.60;;;;;;;3.46;76.70;101522.09;5027549;28;20079;-78
2023/03/16 04:09:13;;;;;;;5.27;2.90;;;;;;;3.44;76.75;101513.47;5025063;28;20064;-78
2023/03/16 04:11:38;;;;;;;4.43;2.97;;;;;;;3.43;76.78;101511.75;5028432;28;20021;-78
2023/03/16 04:14:04;;;;;;;4.47;2.80;;;;;;;3.43;76.53;101514.31;5021156;28;20478;-78
2023/03/16 04:16:30;;;;;;;4.73;2.57;;;;;;;3.44;76.40;101516.03;5008189;28;20072;-78
2023/03/16 04:18:56;;;;;;;4.37;2.83;;;;;;;3.45;76.61;101512.63;5026946;28;20059;-78
2023/03/16 04:21:22;;;;;;;5.10;2.83;;;;;;;3.45;76.94;101512.63;5028530;28;20551;-78
2023/03/16 04:23:48;;;;;;;4.03;2.67;;;;;;;3.47;76.87;101516.09;5025966;28;20038;-78
2023/03/16 04:26:14;;;;;;;4.10;2.83;;;;;;;3.46;77.12;101519.50;5025675;28;20033;-78
2023/03/16 04:28:39;;;;;;;4.93;3.20;;;;;;;3.48;76.80;101515.25;5009331;28;20056;-78
2023/03/16 04:31:08;;;;;;;4.93;2.60;;;;;;;3.49;77.13;101514.41;5027221;28;20128;-78
2023/03/16 04:33:34;;;;;;;3.97;2.50;;;;;;;3.51;77.08;101511.00;5009360;28;20083;-79
2023/03/16 04:36:01;;;;;;;4.27;2.70;;;;;;;3.49;76.71;101501.56;5008685;28;20401;-78
2023/03/16 04:38:27;;;;;;;4.50;2.80;;;;;;;3.54;76.75;101511.06;5028768;28;20096;-78
2023/03/16 04:40:52;;;;;;;4.80;2.80;;;;;;;3.55;76.48;101507.63;5027259;28;20043;-78
2023/03/16 04:43:17;;;;;;;4.83;3.13;;;;;;;3.54;76.76;101508.47;5026124;28;20060;-78
2023/03/16 04:45:43;;;;;;;6.03;2.60;;;;;;;3.54;76.22;101506.75;5028854;28;20021;-78
2023/03/16 04:48:09;;;;;;;4.20;2.90;;;;;;;3.54;76.97;101505.91;5028259;28;20037;-78
2023/03/16 04:50:34;;;;;;;4.00;2.60;;;;;;;3.55;76.62;101512.78;5011835;28;20068;-78
2023/03/16 04:53:00;;;;;;;4.37;2.57;;;;;;;3.55;76.61;101502.50;5007022;28;20425;-79
2023/03/16 04:55:25;;;;;;;4.47;2.60;;;;;;;3.55;76.64;101502.50;5026266;28;20120;-78
2023/03/16 04:57:51;;;;;;;4.13;2.63;;;;;;;3.58;76.30;101505.13;5028793;28;20034;-79
2023/03/16 05:00:18;;;;;;;5.50;3.20;;;;;;;3.58;76.41;101505.13;5024469;28;20140;-78
2023/03/16 05:02:45;;;;;;;4.80;3.00;;;;;;;3.59;76.12;101499.09;5009444;28;20080;-79
2023/03/16 05:05:10;;;;;;;4.13;2.77;;;;;;;3.59;75.94;101494.84;5025612;28;20048;-79
2023/03/16 05:07:36;;;;;;;4.77;3.03;;;;;;;3.59;76.07;101493.94;5025698;28;20037;-79
2023/03/16 05:10:02;;;;;;;4.40;2.73;;;;;;;3.61;76.18;101497.41;5028082;28;20026;-79
2023/03/16 05:12:27;;;;;;;4.67;2.80;;;;;;;3.60;76.16;101490.53;5028530;28;20473;-79
2023/03/16 05:14:52;;;;;;;4.03;2.67;;;;;;;3.62;76.27;101481.13;5028733;28;20079;-78
2023/03/16 05:17:18;;;;;;;4.57;2.83;;;;;;;3.61;76.81;101487.13;5029861;28;20056;-79
2023/03/16 05:19:43;;;;;;;5.47;2.73;;;;;;;3.60;76.56;101481.13;5031989;28;20121;-78
2023/03/16 05:22:09;;;;;;;4.30;2.70;;;;;;;3.59;76.20;101481.09;5032636;28;20038;-78
2023/03/16 05:24:35;;;;;;;5.87;3.10;;;;;;;3.59;76.31;101474.25;5032289;28;20384;-79
2023/03/16 05:27:02;;;;;;;5.60;2.70;;;;;;;3.61;76.42;101482.84;5018018;28;20057;-78
2023/03/16 05:29:30;;;;;;;5.10;3.10;;;;;;;3.62;76.27;101473.41;5034844;28;20105;-79
2023/03/16 05:31:55;;;;;;;6.60;3.00;;;;;;;3.62;76.61;101473.41;5032525;28;20048;-78
2023/03/16 05:34:21;;;;;;;4.60;2.53;;;;;;;3.63;77.00;101480.28;5033703;28;20080;-78
2023/03/16 05:36:46;;;;;;;4.90;3.07;;;;;;;3.64;76.63;101474.31;5031812;28;20036;-79
2023/03/16 05:39:12;;;;;;;5.00;2.70;;;;;;;3.64;76.60;101464.00;5030961;28;20033;-79
2023/03/16 05:41:37;;;;;;;4.90;2.90;;;;;;;3.64;76.22;101466.59;5032288;28;20108;-79
2023/03/16 05:44:03;;;;;;;4.13;2.87;;;;;;;3.66;76.83;101470.03;5033448;28;20026;-78
2023/03/16 05:46:28;;;;;;;5.43;2.90;;;;;;;3.68;76.78;101476.06;5013775;28;20372;-79
2023/03/16 05:48:54;;;;;;;5.33;2.73;;;;;;;3.68;76.91;101467.47;5030472;28;20017;-79
2023/03/16 05:51:19;;;;;;;4.70;2.60;;;;;;;3.68;76.81;101468.34;5031875;28;20468;-79
2023/03/16 05:53:45;;;;;;;4.47;2.73;;;;;;;3.69;77.13;101467.50;5030307;28;20029;-79
2023/03/16 05:56:11;;;;;;;4.85;2.67;;;;;;;3.71;76.79;101460.69;5032173;28;20029;-77
2023/03/16 05:58:36;;;;;;;4.60;2.70;;;;;;;3.72;77.06;101462.41;5030722;28;20933;-79
2023/03/16 06:01:03;;;;;;;4.80;2.67;;;;;;;3.75;77.62;101461.56;5033793;28;20075;-79
2023/03/16 06:03:30;;;;;;;4.13;2.60;;;;;;;3.76;77.68;101461.59;5031592;28;20543;-79
2023/03/16 06:05:55;;;;;;;4.43;2.60;;;;;;;3.80;78.13;101457.34;5032368;28;20465;-80
2023/03/16 06:08:21;;;;;;;4.13;2.67;;;;;;;3.83;77.70;101456.53;5032039;28;20035;-80
2023/03/16 06:10:49;;;;;;;3.63;2.60;;;;;;;3.84;77.87;101456.56;5032781;28;20056;-79
2023/03/16 06:13:14;;;;;;;4.33;2.53;;;;;;;3.87;78.36;101458.28;5030406;28;20495;-79
2023/03/16 06:15:40;;;;;;;5.00;2.37;;;;;;;3.86;78.38;101454.84;5031016;28;20108;-79
2023/03/16 06:18:05;;;;;;;5.17;2.73;;;;;;;3.88;78.29;101452.31;5030718;28;20025;-79
2023/03/16 06:20:31;;;;;;;5.47;2.87;;;;;;;3.88;77.80;101460.88;5013650;28;20042;-79
2023/03/16 06:22:56;;;;;;;5.77;3.07;;;;;;;3.89;78.14;101462.59;5029281;28;20045;-79
2023/03/16 06:25:22;;;;;;;5.27;2.93;;;;;;;3.90;78.03;101455.75;5031178;28;20029;-79
2023/03/16 06:27:48;;;;;;;5.20;2.60;;;;;;;3.93;78.76;101458.34;5030203;28;20026;-79
2023/03/16 06:30:14;;;;;;;4.23;2.47;;;;;;;3.92;78.52;101456.66;5030703;28;20586;-79
2023/03/16 06:32:41;;;;;;;3.73;2.60;;;;;;;3.91;78.76;101460.91;5031363;28;20025;-79
2023/03/16 06:35:08;;;;;;;4.17;2.70;;;;;;;3.93;78.50;101456.66;5032599;28;20103;-79
2023/03/16 06:37:34;;;;;;;4.75;2.63;;;;;;;3.95;79.18;101454.09;5028711;28;20034;-79
2023/03/16 06:39:59;;;;;;;4.40;2.70;;;;;;;3.96;78.37;101458.38;5029828;28;21973;-79
2023/03/16 06:42:24;;;;;;;4.15;2.70;;;;;;;3.99;78.78;101461.00;5027485;28;20038;-77
2023/03/16 06:44:51;;;;;;;3.70;2.50;;;;;;;4.01;78.68;101459.31;5029521;28;20030;-79
2023/03/16 06:47:17;;;;;;;5.03;2.67;;;;;;;4.03;78.69;101460.19;5012407;28;20084;-80
2023/03/16 06:49:42;;;;;;;4.17;2.73;;;;;;;4.04;78.78;101451.63;5026291;28;20037;-79
2023/03/16 06:52:09;;;;;;;4.50;2.40;;;;;;;4.09;79.00;101460.28;5030117;28;20033;-79
2023/03/16 06:54:36;;;;;;;4.33;2.50;;;;;;;4.12;79.24;101458.56;5010295;28;20443;-80
2023/03/16 06:57:02;;;;;;;5.03;2.73;;;;;;;4.12;79.60;101468.84;5013733;28;20403;-80
2023/03/16 06:59:27;;;;;;;3.70;2.47;;;;;;;4.13;79.01;101466.31;5030395;28;20108;-80
2023/03/16 07:01:53;;;;;;;4.67;2.53;;;;;;;4.15;79.12;101453.44;5029657;28;20037;-80
2023/03/16 07:04:18;;;;;;;5.17;3.00;;;;;;;4.17;79.45;101451.75;5026037;28;20028;-80
2023/03/16 07:06:43;;;;;;;5.00;2.87;;;;;;;4.18;78.78;101445.75;5029861;28;20029;-80
2023/03/16 07:09:09;;;;;;;3.83;2.57;;;;;;;4.20;79.21;101446.66;5025997;28;20112;-80
2023/03/16 07:11:34;;;;;;;4.18;2.70;;;;;;;4.21;79.41;101438.91;5027897;28;20183;-80
2023/03/16 07:14:00;;;;;;;5.00;2.80;;;;;;;4.28;79.18;101444.16;5029619;28;20037;-80
2023/03/16 07:16:26;;;;;;;5.60;3.10;;;;;;;4.32;79.47;101435.59;5031117;28;20017;-80
2023/03/16 07:18:51;;;;;;;4.85;2.90;;;;;;;4.39;79.69;101433.09;5028470;28;20025;-80
2023/03/16 07:21:17;;;;;;;6.37;2.80;;;;;;;4.46;79.62;101439.19;5025772;28;20045;-80
2023/03/16 07:23:43;;;;;;;5.23;3.10;;;;;;;4.50;79.01;101440.94;5031959;28;20029;-80
2023/03/16 07:26:10;;;;;;;5.47;2.67;;;;;;;4.55;79.16;101438.41;5030057;28;20033;-80
2023/03/16 07:28:39;;;;;;;4.67;3.20;;;;;;;4.60;79.50;101435.84;5027317;28;20687;-80
2023/03/16 07:31:05;;;;;;;4.87;2.73;;;;;;;4.63;79.30;101439.31;5032707;28;20091;-80
2023/03/16 07:33:33;;;;;;;4.93;2.90;;;;;;;4.66;79.35;101446.22;5030060;28;20440;-80
2023/03/16 07:36:03;;;;;;;5.20;3.00;;;;;;;4.69;79.38;101434.22;5023406;28;20037;-80
2023/03/16 07:38:28;;;;;;;4.70;3.22;;;;;;;4.75;78.91;101435.13;5010656;28;20041;-80
2023/03/16 07:40:53;;;;;;;5.07;3.40;;;;;;;4.78;79.37;101441.16;5031112;28;20029;-80
2023/03/16 07:43:18;;;;;;;5.00;3.30;;;;;;;4.81;79.33;101425.72;5030072;28;20033;-80
2023/03/16 07:45:51;;;;;;;8.75;3.55;;;;;;;4.85;79.77;101436.91;5030856;28;20037;-80
2023/03/16 07:48:17;;;;;;;5.40;3.03;;;;;;;4.88;79.38;101434.38;5029945;28;20017;-80
2023/03/16 07:50:43;;;;;;;4.95;2.92;;;;;;;4.89;79.71;101427.47;5032059;28;20029;-80
2023/03/16 07:53:09;;;;;;;5.28;2.95;;;;;;;4.91;79.96;101434.41;5032108;28;20430;-80
2023/03/16 07:55:35;;;;;;;7.87;2.97;;;;;;;4.93;79.22;101419.81;5031424;28;20034;-80
2023/03/16 07:58:01;;;;;;;6.63;3.20;;;;;;;4.94;78.88;101420.66;5029177;28;20026;-80
2023/03/16 08:00:27;;;;;;;5.97;3.17;;;;;;;4.94;79.10;101426.69;5030758;28;20380;-79
2023/03/16 08:02:54;;;;;;;4.38;2.80;;;;;;;4.93;79.06;101430.13;5028714;28;20131;-79
2023/03/16 08:05:20;;;;;;;5.15;2.83;;;;;;;4.95;78.90;101425.81;5029369;28;20041;-80
2023/03/16 08:07:45;;;;;;;6.90;2.78;;;;;;;4.99;79.27;101432.72;5027457;28;20189;-80
2023/03/16 08:10:11;;;;;;;5.07;2.70;;;;;;;5.01;78.48;101425.00;5013733;28;20193;-80
2023/03/16 08:12:36;;;;;;;6.88;2.53;;;;;;;5.05;78.34;101423.31;5030607;28;20115;-80
2023/03/16 08:15:01;;;;;;;3.97;2.70;;;;;;;5.09;78.53;101419.91;5031110;28;20152;-80
2023/03/16 08:17:27;;;;;;;3.67;2.28;;;;;;;5.14;78.09;101423.34;5029801;28;20376;-80
2023/03/16 08:19:52;;;;;;;4.75;2.50;;;;;;;5.16;77.49;101422.53;5029505;28;20430;-80
2023/03/16 08:22:17;;;;;;;4.10;2.30;;;;;;;5.21;78.60;101419.13;5030294;28;20037;-80
2023/03/16 08:24:43;;;;;;;4.40;2.70;;;;;;;5.26;77.72;101423.44;5031195;28;20091;-80
2023/03/16 08:27:08;;;;;;;4.35;2.38;;;;;;;5.30;77.52;101414.84;5027455;28;20032;-80
2023/03/16 08:29:33;;;;;;;3.55;2.25;;;;;;;5.39;77.67;101423.50;5032653;28;20404;-80
2023/03/16 08:31:59;;;;;;;5.22;2.67;;;;;;;5.48;78.01;101428.69;5031207;28;20067;-80
2023/03/16 08:34:26;;;;;;;4.68;2.53;;;;;;;5.55;76.57;101424.44;5031417;28;20037;-80
2023/03/16 08:36:51;;;;;;;5.40;2.70;;;;;;;5.59;76.36;101421.00;5029736;28;20056;-80
2023/03/16 08:39:17;;;;;;;4.63;2.45;;;;;;;5.60;76.42;101418.44;5029652;28;20058;-80
2023/03/16 08:41:42;;;;;;;5.50;2.58;;;;;;;5.62;75.51;101423.59;5029598;28;20485;-79
2023/03/16 08:44:09;;;;;;;5.45;2.38;;;;;;;5.64;75.64;101424.47;5030223;28;20033;-80
2023/03/16 08:46:35;;;;;;;3.85;2.53;;;;;;;5.69;76.12;101421.91;5028764;28;20034;-80
2023/03/16 08:49:01;;;;;;;5.65;2.67;;;;;;;5.74;75.15;101420.22;5030611;28;20548;-80
2023/03/16 08:51:28;;;;;;;4.93;2.40;;;;;;;5.80;75.35;101419.38;5026047;28;20069;-79
2023/03/16 08:53:54;;;;;;;4.25;2.47;;;;;;;5.84;74.37;101432.28;5025138;28;20091;-80
2023/03/16 08:56:19;;;;;;;3.72;2.20;;;;;;;5.86;74.53;101419.41;5010301;28;20041;-80
2023/03/16 08:58:44;;;;;;;4.45;2.38;;;;;;;5.92;74.58;101424.56;5026898;28;20029;-80
2023/03/16 09:01:12;;;;;;;3.10;2.05;;;;;;;5.97;73.37;101412.53;5029506;28;20036;-80
2023/03/16 09:03:39;;;;;;;3.67;2.10;;;;;;;6.03;73.38;101420.34;5026625;28;20528;-80
2023/03/16 09:06:07;;;;;;;3.10;1.92;;;;;;;6.07;74.52;101410.88;5027147;28;20025;-80
2023/03/16 09:08:32;;;;;;;4.82;2.13;;;;;;;6.13;73.07;101407.44;5029341;28;20040;-80
2023/03/16 09:11:00;;;;;;;4.72;2.13;;;;;;;6.16;72.89;101397.09;5028044;28;20046;-80
2023/03/16 09:13:26;;;;;;;3.92;1.95;;;;;;;6.19;72.25;101397.97;5025975;28;20037;-79
2023/03/16 09:15:51;;;;;;;3.90;2.05;;;;;;;6.25;72.69;101402.28;5026013;28;20022;-80
2023/03/16 09:18:17;;;;;;;4.68;2.13;;;;;;;6.30;73.84;101394.56;5027532;28;20033;-80
2023/03/16 09:20:43;;;;;;;3.28;1.90;;;;;;;6.36;72.62;101395.41;5010178;28;20252;-80
2023/03/16 09:23:08;;;;;;;4.88;2.00;;;;;;;6.40;71.32;101391.09;5025633;28;20117;-80
2023/03/16 09:25:33;;;;;;;4.68;2.10;;;;;;;6.44;71.45;101403.16;5026373;28;20408;-80
2023/03/16 09:27:59;;;;;;;6.00;2.38;;;;;;;6.51;71.05;101402.28;5027253;28;20021;-80
2023/03/16 09:30:25;;;;;;;3.05;1.98;;;;;;;6.55;71.33;101400.59;5025871;28;20057;-80
2023/03/16 09:32:50;;;;;;;3.60;1.98;;;;;;;6.64;71.69;101390.25;5011090;28;20030;-80
2023/03/16 09:35:16;;;;;;;3.22;1.90;;;;;;;6.74;71.26;101388.50;5023119;28;20029;-80
2023/03/16 09:37:41;;;;;;;4.50;2.25;;;;;;;6.82;71.25;101393.66;5026524;28;20029;-80
2023/03/16 09:40:22;;;;;;;3.20;1.88;;;;;;;6.95;70.90;101389.34;5027230;28;20361;-80
2023/03/16 09:43:04;;;;;;;3.97;1.92;;;;;;;7.08;70.96;101395.38;5028217;28;20063;-80
2023/03/16 09:45:50;;;;;;;5.93;2.00;;;;;;;7.20;70.53;101384.09;5025571;28;20036;-80
2023/03/16 09:48:17;;;;;;;2.70;1.77;;;;;;;7.27;69.53;101378.91;5025859;28;20504;-80
2023/03/16 09:50:43;;;;;;;3.92;2.20;;;;;;;7.33;69.01;101374.56;5028267;28;20068;-81
2023/03/16 09:53:21;;;;;;;4.43;2.08;;;;;;;7.34;68.05;101382.34;5028748;28;20029;-80
2023/03/16 09:55:52;;;;;;;3.55;1.80;;;;;;;7.38;69.23;101378.00;5027709;28;20064;-80
2023/03/16 09:58:21;;;;;;;3.67;1.95;;;;;;;7.41;68.39;101381.44;5033241;28;20025;-80
2023/03/16 10:00:49;;;;;;;4.32;2.00;;;;;;;7.46;68.37;101380.56;5033150;28;20456;-80
2023/03/16 10:03:43;;;;;;;5.07;2.30;;;;;;;7.49;67.82;101371.06;5031991;28;20029;-80
2023/03/16 10:06:12;;;;;;;4.50;2.35;;;;;;;7.53;67.96;101367.59;5034131;28;20048;-81
2023/03/16 10:08:48;;;;;;;6.85;2.20;;;;;;;7.63;70.54;101352.88;5033694;28;20388;-80
2023/03/16 10:11:36;;;;;;;4.15;2.05;;;;;;;7.67;69.29;101357.19;5031063;28;20032;-80
2023/03/16 10:14:29;;;;;;;3.55;1.95;;;;;;;7.69;68.08;101358.00;5029314;28;20401;-81
2023/03/16 10:17:12;;;;;;;5.72;2.28;;;;;;;7.66;68.30;101350.28;5031031;28;20108;-81
2023/03/16 10:19:42;;;;;;;6.53;2.30;;;;;;;7.68;67.10;101343.38;5031788;28;20033;-81
2023/03/16 10:22:25;;;;;;;4.20;2.25;;;;;;;7.77;67.33;101341.56;5027605;28;20040;-81
2023/03/16 10:25:19;;;;;;;4.47;2.53;;;;;;;7.84;67.85;101335.50;5030010;28;20033;-80
2023/03/16 10:27:46;;;;;;;4.85;2.10;;;;;;;7.92;66.05;101338.88;5028433;28;20537;-81
2023/03/16 10:30:20;;;;;;;4.70;2.42;;;;;;;7.93;67.10;101335.41;5016082;28;20053;-80
2023/03/16 10:32:47;;;;;;;4.25;2.47;;;;;;;7.96;65.09;101329.34;5032655;28;20045;-81
2023/03/16 10:35:35;;;;;;;4.53;2.50;;;;;;;8.00;66.54;101342.28;5030913;28;20139;-80
2023/03/16 10:38:00;;;;;;;3.97;1.92;;;;;;;8.04;66.53;101338.78;5029194;28;20075;-80
2023/03/16 10:40:30;;;;;;;3.60;1.85;;;;;;;8.13;65.42;101339.59;5033241;28;21308;-80
2023/03/16 10:42:55;;;;;;;3.50;1.90;;;;;;;8.19;65.14;101331.78;5013878;28;20418;-80
2023/03/16 10:45:29;;;;;;;3.85;2.20;;;;;;;8.31;67.12;101321.31;5031563;28;20025;-80
2023/03/16 10:48:13;;;;;;;3.58;2.10;;;;;;;8.43;66.46;101332.44;5030558;28;20083;-80
2023/03/16 10:50:40;;;;;;;3.38;2.03;;;;;;;8.53;64.36;101333.25;5018025;28;20739;-80
2023/03/16 10:53:16;;;;;;;4.25;2.00;;;;;;;8.65;65.26;101320.16;5031768;28;20029;-81
2023/03/16 10:55:44;;;;;;;3.28;1.98;;;;;;;8.79;64.08;101315.72;5030388;28;20625;-81
2023/03/16 10:58:10;;;;;;;3.63;2.00;;;;;;;8.96;62.32;101314.66;5033479;28;20033;-81
2023/03/16 11:00:40;;;;;;;3.45;1.88;;;;;;;9.11;63.58;101313.59;5033826;28;20029;-80
2023/03/16 11:03:21;;;;;;;3.10;1.85;;;;;;;9.24;63.69;101309.97;5031959;28;20170;-81
2023/03/16 11:05:47;;;;;;;3.28;1.90;;;;;;;9.34;61.80;101313.31;5013158;28;20348;-80
2023/03/16 11:08:18;;;;;;;4.50;2.17;;;;;;;9.42;60.73;101308.03;5032974;28;20097;-81
2023/03/16 11:10:52;;;;;;;3.95;1.95;;;;;;;9.45;61.29;101313.19;5016364;28;20087;-81
2023/03/16 11:13:19;;;;;;;3.72;2.08;;;;;;;9.52;59.48;101303.56;5031964;28;20022;-81
2023/03/16 11:15:56;;;;;;;3.83;2.03;;;;;;;9.53;61.50;101300.97;5030681;28;20754;-80
2023/03/16 11:18:42;;;;;;;4.38;2.03;;;;;;;9.63;62.15;101298.22;5012757;28;20156;-80
2023/03/16 11:21:18;;;;;;;3.80;2.05;;;;;;;9.70;59.37;101289.47;5030089;28;20084;-81
2023/03/16 11:23:48;;;;;;;3.15;2.08;;;;;;;9.75;59.72;101285.03;5030852;28;20040;-80
2023/03/16 11:26:21;;;;;;;3.33;1.98;;;;;;;9.79;59.43;101284.13;5028856;28;20032;-80
2023/03/16 11:28:55;;;;;;;4.40;2.00;;;;;;;9.87;58.87;101277.06;5028847;28;20056;-81
2023/03/16 11:32:10;;;;;;;4.45;2.20;;;;;;;9.92;60.66;101277.00;5031044;28;20030;-81
2023/03/16 11:34:36;;;;;;;5.93;1.83;;;;;;;9.98;58.39;101266.50;4992558;28;20056;-81
2023/03/16 11:37:16;;;;;;;3.60;1.77;;;;;;;10.01;59.08;101265.59;5031297;28;20033;-80